Time;durP1;ratioP1;P1;durP2;ratioP2;P2;SDS_P1;SDS_P2;PMS_P1;PMS_P2;Temp;Humidity;BMP_temperature;BMP_pressure;BME280_temperature;BME280_humidity;BME280_pressure;Samples;Min_cycle;Max_cycle;Signal;HPM_P1;HPM_P2
2024/01/16 00:01:07;;;;;;;10.73;5.73;;;-2.00;99.90;;;;;;5052577;28;20163;-75
2024/01/16 00:03:33;;;;;;;6.18;5.35;;;-2.00;99.90;;;;;;5053002;28;20167;-68
2024/01/16 00:05:59;;;;;;;6.07;5.27;;;-2.00;99.90;;;;;;5052104;28;20257;-68
2024/01/16 00:08:24;;;;;;;10.13;4.63;;;-2.00;99.90;;;;;;5052918;28;20218;-72
2024/01/16 00:10:50;;;;;;;7.70;5.33;;;-2.00;99.90;;;;;;5051902;28;20193;-71
2024/01/16 00:13:16;;;;;;;9.35;4.72;;;-1.90;99.90;;;;;;5052832;28;20167;-76
2024/01/16 00:15:43;;;;;;;7.38;5.70;;;-1.80;99.90;;;;;;5052015;28;20159;-67
2024/01/16 00:18:08;;;;;;;7.45;5.90;;;-1.70;99.90;;;;;;5051797;28;20214;-76
2024/01/16 00:20:34;;;;;;;5.13;4.43;;;-1.70;99.90;;;;;;5051434;28;20280;-78
2024/01/16 00:23:00;;;;;;;9.63;5.17;;;-1.60;99.90;;;;;;5052720;28;20220;-70
2024/01/16 00:25:26;;;;;;;8.23;4.90;;;-1.60;99.90;;;;;;5051899;28;20240;-74
2024/01/16 00:27:52;;;;;;;5.30;4.90;;;-1.50;99.90;;;;;;5052741;28;20425;-72
2024/01/16 00:30:18;;;;;;;5.83;5.23;;;-1.50;99.90;;;;;;5052765;28;20627;-78
2024/01/16 00:32:44;;;;;;;6.20;5.60;;;-1.50;99.90;;;;;;5051374;28;20417;-76
2024/01/16 00:35:10;;;;;;;5.40;4.90;;;-1.60;99.90;;;;;;5051655;28;20284;-69
2024/01/16 00:37:37;;;;;;;7.50;6.07;;;-1.50;99.90;;;;;;5052173;28;20484;-78
2024/01/16 00:40:04;;;;;;;10.27;4.60;;;-1.50;99.90;;;;;;5052757;28;20489;-72
2024/01/16 00:42:33;;;;;;;5.82;5.35;;;-1.60;99.90;;;;;;5052783;28;20640;-78
2024/01/16 00:44:59;;;;;;;9.95;5.97;;;-1.60;99.90;;;;;;5051761;28;20632;-73
2024/01/16 00:47:24;;;;;;;9.70;6.00;;;-1.60;99.90;;;;;;5068104;28;20210;-76
2024/01/16 00:49:50;;;;;;;5.77;5.20;;;-1.60;99.90;;;;;;5052721;28;20520;-78
2024/01/16 00:52:16;;;;;;;8.63;5.57;;;-1.60;99.90;;;;;;5052612;28;20186;-70
2024/01/16 00:54:43;;;;;;;5.43;4.93;;;-1.60;99.90;;;;;;5051812;28;20281;-73
2024/01/16 00:57:27;;;;;;;8.55;6.30;;;-1.70;99.90;;;;;;5051959;28;20277;-77
2024/01/16 00:59:53;;;;;;;6.80;5.50;;;-1.70;99.90;;;;;;5052655;28;20163;-70
2024/01/16 01:02:19;;;;;;;13.23;6.17;;;-1.70;99.90;;;;;;5051291;28;20576;-75
2024/01/16 01:04:44;;;;;;;6.43;5.77;;;-1.70;99.90;;;;;;5051709;28;20190;-70
2024/01/16 01:07:15;;;;;;;7.87;6.33;;;-1.70;99.90;;;;;;5052421;28;20187;-77
2024/01/16 01:09:42;;;;;;;9.82;5.68;;;-1.80;99.90;;;;;;5052500;28;20202;-74
2024/01/16 01:12:08;;;;;;;6.18;5.60;;;-1.80;99.90;;;;;;5052463;28;20186;-78
2024/01/16 01:14:33;;;;;;;6.40;5.80;;;-1.80;99.90;;;;;;5050896;28;20647;-70
2024/01/16 01:16:59;;;;;;;9.33;6.77;;;-1.90;99.90;;;;;;5052431;28;20755;-70
2024/01/16 01:19:25;;;;;;;6.87;6.20;;;-1.80;99.90;;;;;;5052255;28;20182;-72
2024/01/16 01:21:50;;;;;;;5.40;4.90;;;-1.90;99.90;;;;;;5052484;28;20771;-72
2024/01/16 01:24:16;;;;;;;18.00;7.57;;;-2.00;99.90;;;;;;5051031;28;20207;-71
2024/01/16 01:26:45;;;;;;;8.73;6.10;;;-2.00;99.90;;;;;;5051493;28;20175;-71
2024/01/16 01:29:11;;;;;;;14.57;6.20;;;-2.10;99.90;;;;;;5052515;28;20190;-74
2024/01/16 01:31:37;;;;;;;7.17;5.90;;;-2.00;99.90;;;;;;5055344;28;20186;-78
2024/01/16 01:34:04;;;;;;;14.15;6.97;;;-2.00;99.90;;;;;;5055931;28;20228;-72
2024/01/16 01:36:30;;;;;;;8.80;6.78;;;-2.10;99.90;;;;;;5055158;28;20159;-79
2024/01/16 01:38:55;;;;;;;7.10;6.20;;;-2.20;99.90;;;;;;5055850;28;20189;-69
2024/01/16 01:41:21;;;;;;;6.80;6.30;;;-2.20;99.90;;;;;;5055737;28;20205;-72
2024/01/16 01:43:46;;;;;;;6.90;6.20;;;-2.10;99.90;;;;;;5055709;28;20182;-70
2024/01/16 01:46:17;;;;;;;13.57;7.53;;;-2.00;99.90;;;;;;5054911;28;20232;-71
2024/01/16 01:48:44;;;;;;;11.30;7.55;;;-2.00;99.90;;;;;;5055130;28;20187;-74
2024/01/16 01:51:16;;;;;;;15.85;7.55;;;-2.00;99.90;;;;;;5054678;28;20171;-78
2024/01/16 01:53:43;;;;;;;9.13;7.43;;;-1.90;99.90;;;;;;5054470;28;20199;-70
2024/01/16 01:56:13;;;;;;;13.65;6.85;;;-1.90;99.90;;;;;;5053335;28;20310;-69
2024/01/16 01:58:42;;;;;;;7.97;7.20;;;-1.90;99.90;;;;;;5055560;28;20194;-79
2024/01/16 02:01:09;;;;;;;10.73;6.55;;;-1.80;99.90;;;;;;5055558;28;20588;-69
2024/01/16 02:03:49;;;;;;;7.75;6.68;;;-1.90;99.90;;;;;;5054987;28;20531;-75
2024/01/16 02:06:17;;;;;;;12.48;7.90;;;-1.90;99.90;;;;;;5054343;28;20190;-76
2024/01/16 02:08:44;;;;;;;7.90;7.13;;;-1.90;99.90;;;;;;5055257;28;20218;-72
2024/01/16 02:11:10;;;;;;;11.43;9.68;;;-2.00;99.90;;;;;;5055379;28;20182;-77
2024/01/16 02:13:36;;;;;;;8.10;7.40;;;-2.00;99.90;;;;;;5055113;28;20187;-68
2024/01/16 02:16:03;;;;;;;11.45;7.65;;;-2.00;99.90;;;;;;5054325;28;20398;-74
2024/01/16 02:18:29;;;;;;;10.52;7.30;;;-2.00;99.90;;;;;;5055121;28;20211;-67
2024/01/16 02:21:03;;;;;;;7.50;6.90;;;-2.20;99.90;;;;;;5053795;28;20209;-73
2024/01/16 02:23:31;;;;;;;9.10;7.45;;;-2.20;99.90;;;;;;5054667;28;20781;-67
2024/01/16 02:25:56;;;;;;;11.65;6.90;;;-2.20;99.90;;;;;;5053986;28;20163;-72
2024/01/16 02:28:22;;;;;;;11.17;6.50;;;-2.20;99.90;;;;;;5054910;28;20708;-71
2024/01/16 02:30:48;;;;;;;7.20;6.50;;;-2.20;99.90;;;;;;5053642;28;20167;-67
2024/01/16 02:33:13;;;;;;;8.10;7.33;;;-2.20;99.90;;;;;;5055017;28;20171;-77
2024/01/16 02:35:39;;;;;;;12.87;8.93;;;-2.20;99.90;;;;;;5053871;28;20175;-76
2024/01/16 02:38:05;;;;;;;10.70;8.27;;;-2.10;99.90;;;;;;5054595;28;20282;-74
2024/01/16 02:40:30;;;;;;;12.37;8.33;;;-2.20;99.90;;;;;;5054815;28;20202;-67
2024/01/16 02:42:56;;;;;;;9.53;7.30;;;-2.20;99.90;;;;;;5053542;28;20616;-76
2024/01/16 02:45:22;;;;;;;9.07;7.70;;;-2.20;99.90;;;;;;5053828;28;20179;-71
2024/01/16 02:47:48;;;;;;;11.47;8.80;;;-2.10;99.90;;;;;;5054621;28;20257;-68
2024/01/16 02:50:14;;;;;;;10.35;8.82;;;-2.10;99.90;;;;;;5054454;28;20412;-75
2024/01/16 02:52:39;;;;;;;13.70;8.50;;;-2.20;99.90;;;;;;5054653;28;20171;-76
2024/01/16 02:55:06;;;;;;;11.87;7.70;;;-2.20;99.90;;;;;;5053531;28;20297;-70
2024/01/16 02:57:32;;;;;;;15.35;9.35;;;-2.20;99.90;;;;;;5054404;28;20163;-71
2024/01/16 02:59:57;;;;;;;9.43;8.20;;;-2.20;99.90;;;;;;5053858;28;20658;-77
2024/01/16 03:02:23;;;;;;;10.37;7.40;;;-2.20;99.90;;;;;;5054315;28;20170;-67
2024/01/16 03:04:49;;;;;;;11.83;7.70;;;-2.20;99.90;;;;;;5053329;28;20262;-76
2024/01/16 03:07:15;;;;;;;11.05;7.97;;;-2.20;99.90;;;;;;5053026;28;20190;-68
2024/01/16 03:09:41;;;;;;;13.50;8.30;;;-2.20;99.90;;;;;;5053153;28;20199;-67
2024/01/16 03:12:07;;;;;;;10.87;7.87;;;-2.20;99.90;;;;;;5054060;28;20489;-68
2024/01/16 03:14:34;;;;;;;12.87;9.00;;;-2.20;99.90;;;;;;5053221;28;20679;-75
2024/01/16 03:17:03;;;;;;;13.40;8.65;;;-2.30;99.90;;;;;;5054106;28;20241;-67
2024/01/16 03:19:29;;;;;;;12.48;7.90;;;-2.30;99.90;;;;;;5053347;28;20241;-72
2024/01/16 03:21:55;;;;;;;11.27;8.07;;;-2.40;99.90;;;;;;5052678;28;20171;-74
2024/01/16 03:24:21;;;;;;;9.37;8.37;;;-2.40;99.90;;;;;;5053834;28;20809;-70
2024/01/16 03:26:46;;;;;;;8.93;7.20;;;-2.50;99.90;;;;;;5052994;28;20405;-74
2024/01/16 03:29:12;;;;;;;9.93;7.93;;;-2.50;99.90;;;;;;5053827;28;20437;-76
2024/01/16 03:31:38;;;;;;;10.83;8.73;;;-2.60;99.90;;;;;;5053760;28;20224;-68
2024/01/16 03:34:03;;;;;;;14.10;8.20;;;-2.70;99.90;;;;;;5053612;28;20260;-72
2024/01/16 03:36:29;;;;;;;18.90;8.40;;;-2.70;99.90;;;;;;5052718;28;20632;-73
2024/01/16 03:38:55;;;;;;;9.10;8.00;;;-2.60;99.90;;;;;;5053556;28;20195;-67
2024/01/16 03:41:21;;;;;;;11.90;8.00;;;-2.80;99.90;;;;;;5051983;28;20651;-71
2024/01/16 03:43:46;;;;;;;15.27;9.47;;;-2.80;99.90;;;;;;5053636;28;20167;-77
2024/01/16 03:46:12;;;;;;;13.40;8.07;;;-2.80;99.90;;;;;;5052690;28;20167;-76
2024/01/16 03:48:38;;;;;;;10.40;7.73;;;-2.80;99.90;;;;;;5052349;28;20201;-76
2024/01/16 03:51:04;;;;;;;8.43;7.63;;;-2.80;99.90;;;;;;5053468;28;20246;-67
2024/01/16 03:53:29;;;;;;;10.27;7.93;;;-2.80;99.90;;;;;;5053348;28;20405;-74
2024/01/16 03:55:56;;;;;;;13.67;8.27;;;-2.70;99.90;;;;;;5052566;28;20410;-68
2024/01/16 03:58:22;;;;;;;11.32;8.40;;;-2.60;99.90;;;;;;5052643;28;20272;-73
2024/01/16 04:00:50;;;;;;;12.40;8.75;;;-2.70;99.90;;;;;;5053157;28;20238;-68
2024/01/16 04:03:17;;;;;;;8.82;7.47;;;-2.60;99.90;;;;;;5053249;28;20248;-70
2024/01/16 04:05:42;;;;;;;9.82;7.95;;;-2.60;99.90;;;;;;5052216;28;20179;-68
2024/01/16 04:08:08;;;;;;;17.73;8.03;;;-2.60;99.90;;;;;;5053116;28;20672;-76
2024/01/16 04:10:34;;;;;;;10.50;8.63;;;-2.60;99.90;;;;;;5053178;28;20167;-67
2024/01/16 04:13:03;;;;;;;12.03;8.93;;;-2.60;99.90;;;;;;5053049;28;20873;-76
2024/01/16 04:15:29;;;;;;;11.77;7.43;;;-2.60;99.90;;;;;;5051871;28;20202;-68
2024/01/16 04:17:54;;;;;;;13.23;8.50;;;-2.60;99.90;;;;;;5052649;28;20198;-68
2024/01/16 04:20:21;;;;;;;14.30;8.63;;;-2.60;99.90;;;;;;5052988;28;20173;-71
2024/01/16 04:22:47;;;;;;;12.80;9.60;;;-2.60;99.90;;;;;;5052803;28;20406;-71
2024/01/16 04:25:12;;;;;;;10.68;9.15;;;-2.60;99.90;;;;;;5052232;28;20175;-72
2024/01/16 04:27:38;;;;;;;8.00;7.20;;;-2.70;99.90;;;;;;5052806;28;20190;-67
2024/01/16 04:30:05;;;;;;;8.90;8.00;;;-2.70;99.90;;;;;;5052858;28;20167;-75
2024/01/16 04:32:30;;;;;;;9.50;7.55;;;-2.70;99.90;;;;;;5052891;28;20171;-76
2024/01/16 04:34:56;;;;;;;10.53;8.90;;;-2.60;99.90;;;;;;5050353;28;20713;-75
2024/01/16 04:37:22;;;;;;;17.60;8.80;;;-2.60;99.90;;;;;;5052383;28;20190;-74
2024/01/16 04:39:47;;;;;;;13.63;7.80;;;-2.60;99.90;;;;;;5052809;28;20175;-67
2024/01/16 04:42:13;;;;;;;11.30;8.27;;;-2.70;99.90;;;;;;5052799;28;20167;-70
2024/01/16 04:44:39;;;;;;;11.43;7.80;;;-2.70;99.90;;;;;;5051883;28;20171;-73
2024/01/16 04:47:05;;;;;;;10.83;8.00;;;-2.80;99.90;;;;;;5052564;28;20217;-68
2024/01/16 04:49:30;;;;;;;10.30;7.67;;;-2.80;99.90;;;;;;5052639;28;20195;-76
2024/01/16 04:51:56;;;;;;;13.37;9.30;;;-2.80;99.90;;;;;;5052539;28;20401;-75
2024/01/16 04:54:22;;;;;;;11.53;7.80;;;-2.80;99.90;;;;;;5052164;28;20195;-75
2024/01/16 04:56:48;;;;;;;11.57;9.17;;;-2.70;99.90;;;;;;5051769;28;20192;-76
2024/01/16 04:59:13;;;;;;;9.43;7.37;;;-2.70;99.90;;;;;;5052474;28;20655;-68
2024/01/16 05:01:39;;;;;;;12.60;8.10;;;-2.60;99.90;;;;;;5052524;28;20159;-76
2024/01/16 05:04:05;;;;;;;14.87;8.57;;;-2.70;99.90;;;;;;5052650;28;20177;-75
2024/01/16 05:06:30;;;;;;;11.70;8.80;;;-2.60;99.90;;;;;;5055629;28;20429;-76
2024/01/16 05:08:56;;;;;;;13.60;8.63;;;-2.60;99.90;;;;;;5071972;28;20260;-76
2024/01/16 05:11:22;;;;;;;17.70;9.07;;;-2.60;99.90;;;;;;5055825;28;20197;-67
2024/01/16 05:13:48;;;;;;;14.03;9.23;;;-2.50;99.90;;;;;;5055991;28;20449;-76
2024/01/16 05:16:13;;;;;;;10.93;9.00;;;-2.50;99.90;;;;;;5054384;28;20257;-68
2024/01/16 05:18:42;;;;;;;10.30;9.23;;;-2.50;99.90;;;;;;5056245;28;20187;-76
2024/01/16 05:21:08;;;;;;;14.75;9.40;;;-2.40;99.90;;;;;;5056148;28;20170;-72
2024/01/16 05:23:34;;;;;;;21.80;9.93;;;-2.40;99.90;;;;;;5056066;28;20175;-68
2024/01/16 05:26:00;;;;;;;14.50;9.23;;;-2.30;99.90;;;;;;5055334;28;20170;-74
2024/01/16 05:28:25;;;;;;;17.07;10.37;;;-2.40;99.90;;;;;;5055972;28;20552;-68
2024/01/16 05:30:51;;;;;;;12.20;9.47;;;-2.30;99.90;;;;;;5055673;28;20251;-77
2024/01/16 05:33:17;;;;;;;14.87;11.33;;;-2.30;99.90;;;;;;5055800;28;20164;-72
2024/01/16 05:35:42;;;;;;;15.60;9.10;;;-2.30;99.90;;;;;;5055112;28;20604;-70
2024/01/16 05:38:08;;;;;;;13.33;10.40;;;-2.20;99.90;;;;;;5055940;28;20183;-68
2024/01/16 05:40:33;;;;;;;17.50;9.30;;;-2.20;99.90;;;;;;5056041;28;20159;-69
2024/01/16 05:42:59;;;;;;;14.23;9.80;;;-2.10;99.90;;;;;;5055816;28;20163;-67
2024/01/16 05:45:25;;;;;;;18.53;11.63;;;-2.20;99.90;;;;;;5054812;28;20182;-67
2024/01/16 05:47:50;;;;;;;25.70;11.77;;;-2.20;99.90;;;;;;5055311;28;20747;-75
2024/01/16 05:50:18;;;;;;;15.17;9.47;;;-2.20;99.90;;;;;;5055646;28;20513;-75
2024/01/16 05:52:44;;;;;;;18.40;10.15;;;-2.20;99.90;;;;;;5055708;28;20531;-68
2024/01/16 05:55:10;;;;;;;14.07;10.37;;;-2.20;99.90;;;;;;5053495;28;20203;-69
2024/01/16 05:57:37;;;;;;;16.55;10.50;;;-2.10;99.90;;;;;;5055374;28;20163;-72
2024/01/16 06:00:05;;;;;;;17.98;10.75;;;-2.10;99.90;;;;;;5055565;28;20628;-72
2024/01/16 06:02:31;;;;;;;19.88;11.23;;;-2.20;99.90;;;;;;5055581;28;20167;-75
2024/01/16 06:04:57;;;;;;;17.43;11.40;;;-2.10;99.90;;;;;;5054296;28;20175;-74
2024/01/16 06:07:23;;;;;;;18.30;10.17;;;-2.10;99.90;;;;;;5054912;28;20453;-69
2024/01/16 06:09:48;;;;;;;16.67;10.80;;;-2.20;99.90;;;;;;5055358;28;20701;-73
2024/01/16 06:12:14;;;;;;;13.73;9.50;;;-2.20;99.90;;;;;;5055215;28;20410;-72
2024/01/16 06:14:40;;;;;;;22.87;11.20;;;-2.20;99.90;;;;;;5053078;28;20241;-76
2024/01/16 06:17:06;;;;;;;17.73;9.73;;;-2.10;99.90;;;;;;5054062;28;20258;-72
2024/01/16 06:19:32;;;;;;;17.98;11.20;;;-2.10;99.90;;;;;;5055040;28;20179;-67
2024/01/16 06:21:59;;;;;;;17.35;11.35;;;-2.10;99.90;;;;;;5055123;28;20167;-71
2024/01/16 06:24:25;;;;;;;18.20;10.85;;;-2.00;99.90;;;;;;5054872;28;20186;-75
2024/01/16 06:26:51;;;;;;;17.53;11.13;;;-2.00;99.90;;;;;;5053591;28;20179;-69
2024/01/16 06:29:16;;;;;;;17.20;10.63;;;-2.00;99.90;;;;;;5054863;28;20195;-71
2024/01/16 06:31:42;;;;;;;14.83;9.83;;;-1.90;99.90;;;;;;5054820;28;20182;-75
2024/01/16 06:34:08;;;;;;;18.17;11.10;;;-1.90;99.90;;;;;;5054716;28;20266;-69
2024/01/16 06:36:34;;;;;;;19.48;10.65;;;-1.80;99.90;;;;;;5054007;28;20179;-75
2024/01/16 06:39:00;;;;;;;16.53;10.53;;;-1.80;99.90;;;;;;5053609;28;20199;-77
2024/01/16 06:41:25;;;;;;;17.20;10.97;;;-1.80;99.90;;;;;;5054598;28;20398;-71
2024/01/16 06:43:51;;;;;;;20.53;10.67;;;-1.80;99.90;;;;;;5052631;28;20495;-71
2024/01/16 06:46:17;;;;;;;19.50;10.63;;;-1.80;99.90;;;;;;5053208;28;20209;-71
2024/01/16 06:48:42;;;;;;;17.53;11.00;;;-1.70;99.90;;;;;;5054542;28;20190;-74
2024/01/16 06:51:10;;;;;;;17.27;9.53;;;-1.70;99.90;;;;;;5054544;28;20182;-78
2024/01/16 06:53:36;;;;;;;15.68;9.75;;;-1.70;99.90;;;;;;5054339;28;20193;-70
2024/01/16 06:56:03;;;;;;;16.23;10.33;;;-1.70;99.90;;;;;;5053414;28;20510;-72
2024/01/16 06:58:28;;;;;;;18.73;10.50;;;-1.70;99.90;;;;;;5054379;28;20187;-77
2024/01/16 07:00:55;;;;;;;13.77;10.60;;;-1.70;99.90;;;;;;5053098;28;20177;-77
2024/01/16 07:03:20;;;;;;;13.13;10.20;;;-1.70;99.90;;;;;;5054533;28;20163;-74
2024/01/16 07:05:46;;;;;;;18.27;10.23;;;-1.70;99.90;;;;;;5052669;28;20206;-76
2024/01/16 07:08:12;;;;;;;20.77;9.97;;;-1.70;99.90;;;;;;5054169;28;20670;-77
2024/01/16 07:10:38;;;;;;;15.20;9.80;;;-1.60;99.90;;;;;;5054230;28;20170;-77
2024/01/16 07:13:03;;;;;;;16.37;9.90;;;-1.60;99.90;;;;;;5054116;28;20175;-75
2024/01/16 07:15:29;;;;;;;17.73;9.77;;;-1.60;99.90;;;;;;5053089;28;20195;-75
2024/01/16 07:17:55;;;;;;;12.77;9.67;;;-1.60;99.90;;;;;;5054074;28;20195;-78
2024/01/16 07:20:20;;;;;;;12.97;9.97;;;-1.50;99.90;;;;;;5054003;28;20175;-72
2024/01/16 07:22:46;;;;;;;11.87;9.47;;;-1.50;99.90;;;;;;5053933;28;20616;-71
2024/01/16 07:25:12;;;;;;;15.17;9.60;;;-1.50;99.90;;;;;;5052439;28;20221;-70
2024/01/16 07:27:38;;;;;;;13.70;10.73;;;-1.50;99.90;;;;;;5052253;28;20671;-78
2024/01/16 07:30:07;;;;;;;15.67;9.70;;;-1.40;99.90;;;;;;5053752;28;20259;-72
2024/01/16 07:32:33;;;;;;;17.88;10.90;;;-1.40;99.90;;;;;;5053790;28;20441;-78
2024/01/16 07:34:59;;;;;;;16.13;10.38;;;-1.50;99.90;;;;;;5051534;28;20203;-77
2024/01/16 07:37:24;;;;;;;17.70;11.17;;;-1.50;99.90;;;;;;5053530;28;20178;-71
2024/01/16 07:39:50;;;;;;;15.87;10.40;;;-1.60;99.90;;;;;;5053593;28;20402;-78
2024/01/16 07:42:16;;;;;;;16.23;11.40;;;-1.50;99.90;;;;;;5053400;28;20167;-78
2024/01/16 07:44:42;;;;;;;16.87;10.80;;;-1.50;99.90;;;;;;5052180;28;20309;-69
2024/01/16 07:47:07;;;;;;;20.70;9.63;;;-1.40;99.90;;;;;;5052534;28;20174;-78
2024/01/16 07:49:34;;;;;;;16.30;10.33;;;-1.50;99.90;;;;;;5053373;28;20245;-78
2024/01/16 07:51:59;;;;;;;19.92;11.65;;;-1.40;99.90;;;;;;5053553;28;20417;-72
2024/01/16 07:54:25;;;;;;;15.30;11.07;;;-1.30;99.90;;;;;;5052965;28;20202;-70
2024/01/16 07:56:52;;;;;;;20.13;11.38;;;-1.20;99.90;;;;;;5052599;28;20187;-77
2024/01/16 07:59:17;;;;;;;17.35;10.93;;;-1.20;99.90;;;;;;5052121;28;20587;-70
2024/01/16 08:01:44;;;;;;;16.90;12.13;;;-1.20;99.90;;;;;;5052551;28;20163;-69
2024/01/16 08:04:10;;;;;;;19.85;11.30;;;-1.10;99.90;;;;;;5053142;28;20191;-70
2024/01/16 08:06:36;;;;;;;21.20;11.38;;;-1.10;99.90;;;;;;5052086;28;20219;-71
2024/01/16 08:09:02;;;;;;;20.58;13.60;;;-1.10;99.90;;;;;;5052853;28;20190;-74
2024/01/16 08:11:27;;;;;;;20.70;10.67;;;-1.00;99.90;;;;;;5052995;28;20178;-69
2024/01/16 08:13:53;;;;;;;17.30;10.67;;;-1.00;99.90;;;;;;5053045;28;20245;-70
2024/01/16 08:16:19;;;;;;;22.30;11.00;;;-1.00;99.90;;;;;;5050798;28;20696;-78
2024/01/16 08:18:44;;;;;;;16.07;11.07;;;-1.00;99.90;;;;;;5052801;28;20586;-74
2024/01/16 08:21:11;;;;;;;19.40;11.73;;;-1.00;99.90;;;;;;5051027;28;20174;-78
2024/01/16 08:23:37;;;;;;;17.42;10.77;;;-0.90;99.90;;;;;;5052794;28;20162;-75
2024/01/16 08:26:02;;;;;;;16.63;10.70;;;-0.90;99.90;;;;;;5050735;28;20221;-71
2024/01/16 08:28:28;;;;;;;19.60;12.00;;;-0.90;99.90;;;;;;5052703;28;20218;-70
2024/01/16 08:30:54;;;;;;;16.93;12.73;;;-0.80;99.90;;;;;;5051533;28;20262;-70
2024/01/16 08:33:19;;;;;;;26.07;12.57;;;-0.70;99.90;;;;;;5052827;28;20206;-70
2024/01/16 08:35:45;;;;;;;23.43;13.07;;;-0.70;99.90;;;;;;5050259;28;20206;-77
2024/01/16 08:38:11;;;;;;;18.37;11.70;;;-0.70;99.90;;;;;;5052087;28;20206;-77
2024/01/16 08:40:36;;;;;;;20.13;13.10;;;-0.70;99.90;;;;;;5052050;28;20632;-73
2024/01/16 08:43:03;;;;;;;20.17;11.70;;;-0.60;99.90;;;;;;5051577;28;20265;-78
2024/01/16 08:45:29;;;;;;;21.02;13.15;;;-0.50;99.90;;;;;;5051772;28;20174;-69
2024/01/16 08:47:55;;;;;;;19.10;12.27;;;-0.50;99.90;;;;;;5052620;28;20221;-70
2024/01/16 08:50:21;;;;;;;20.33;12.77;;;-0.50;99.90;;;;;;5052625;28;20413;-70
2024/01/16 08:52:46;;;;;;;18.60;12.13;;;-0.50;99.90;;;;;;5052418;28;20182;-70
2024/01/16 08:55:12;;;;;;;24.10;13.33;;;-0.50;99.90;;;;;;5051026;28;20195;-76
2024/01/16 08:57:38;;;;;;;18.00;11.23;;;-0.50;99.90;;;;;;5052456;28;20191;-71
2024/01/16 09:00:05;;;;;;;20.50;12.10;;;-0.50;99.90;;;;;;5052619;28;20254;-76
2024/01/16 09:02:31;;;;;;;18.30;12.27;;;-0.40;99.90;;;;;;5052583;28;20167;-70
2024/01/16 09:04:58;;;;;;;20.97;11.53;;;-0.40;99.90;;;;;;5051471;28;20556;-78
2024/01/16 09:07:24;;;;;;;19.27;11.80;;;-0.30;99.90;;;;;;5052204;28;20176;-75
2024/01/16 09:09:50;;;;;;;17.30;11.23;;;-0.20;99.90;;;;;;5052556;28;20408;-77
2024/01/16 09:12:16;;;;;;;18.03;11.37;;;-0.10;99.90;;;;;;5052487;28;20179;-75
2024/01/16 09:14:41;;;;;;;19.40;10.90;;;0.00;99.90;;;;;;5050975;28;20225;-78
2024/01/16 09:17:07;;;;;;;17.63;10.00;;;0.10;99.90;;;;;;5051059;28;20405;-76
2024/01/16 09:19:33;;;;;;;18.97;9.93;;;0.10;99.90;;;;;;5051306;28;20664;-70
2024/01/16 09:21:58;;;;;;;18.00;10.40;;;0.20;99.90;;;;;;5052431;28;20586;-70
2024/01/16 09:24:24;;;;;;;33.67;13.83;;;0.20;99.90;;;;;;5053361;28;20167;-78
2024/01/16 09:26:50;;;;;;;23.27;10.10;;;0.30;99.90;;;;;;5070815;28;20534;-77
2024/01/16 09:29:16;;;;;;;20.13;12.03;;;0.40;99.90;;;;;;5072090;28;20207;-77
2024/01/16 09:31:42;;;;;;;18.07;10.00;;;0.50;99.90;;;;;;5071936;28;20535;-69
2024/01/16 09:34:07;;;;;;;17.63;11.17;;;0.50;99.90;;;;;;5072612;28;20447;-79
2024/01/16 09:36:35;;;;;;;18.33;10.53;;;0.60;99.90;;;;;;5071666;28;20405;-79
2024/01/16 09:39:02;;;;;;;15.70;10.10;;;0.70;99.90;;;;;;5072487;28;20178;-74
2024/01/16 09:41:28;;;;;;;14.27;9.93;;;0.70;99.90;;;;;;5072543;28;20430;-71
2024/01/16 09:43:54;;;;;;;17.60;10.30;;;0.80;99.90;;;;;;5072543;28;20485;-79
2024/01/16 09:46:24;;;;;;;18.10;11.47;;;0.80;99.90;;;;;;5071648;28;20479;-73
2024/01/16 09:48:53;;;;;;;14.20;10.10;;;0.80;99.90;;;;;;5071052;28;20805;-71
2024/01/16 09:51:19;;;;;;;20.87;12.47;;;0.80;99.90;;;;;;5073602;28;20856;-71
2024/01/16 09:53:45;;;;;;;13.97;9.87;;;0.90;99.90;;;;;;5076031;28;20512;-79
2024/01/16 09:56:20;;;;;;;14.43;9.80;;;0.90;99.90;;;;;;5075118;28;20197;-77
2024/01/16 09:58:49;;;;;;;13.17;9.87;;;1.00;99.90;;;;;;5075861;28;20296;-74
2024/01/16 10:01:16;;;;;;;19.00;11.67;;;1.00;99.90;;;;;;5073626;28;20457;-71
2024/01/16 10:03:45;;;;;;;16.23;8.77;;;0.90;99.90;;;;;;5058898;28;20418;-79
2024/01/16 10:06:11;;;;;;;16.97;11.23;;;0.80;99.90;;;;;;5073214;28;20945;-80
2024/01/16 10:08:37;;;;;;;24.83;11.10;;;0.90;99.90;;;;;;5074538;28;20496;-76
2024/01/16 10:11:03;;;;;;;14.23;10.43;;;0.90;99.90;;;;;;5075733;28;20448;-78
2024/01/16 10:13:29;;;;;;;13.10;9.83;;;1.00;99.90;;;;;;5075564;28;20909;-71
2024/01/16 10:15:55;;;;;;;15.57;11.07;;;1.00;99.90;;;;;;5074532;28;20543;-70
2024/01/16 10:18:33;;;;;;;15.57;9.67;;;1.00;99.90;;;;;;5075549;28;20460;-72
2024/01/16 10:20:59;;;;;;;15.47;10.00;;;1.10;99.90;;;;;;5074164;28;20177;-76
2024/01/16 10:23:30;;;;;;;14.30;10.10;;;1.10;99.90;;;;;;5075393;28;20940;-69
2024/01/16 10:26:12;;;;;;;19.43;11.57;;;1.10;99.90;;;;;;5074510;28;20504;-70
2024/01/16 10:28:42;;;;;;;18.80;11.77;;;1.20;99.90;;;;;;5074226;28;20420;-73
2024/01/16 10:31:10;;;;;;;16.67;11.00;;;1.20;99.90;;;;;;5074330;28;20416;-72
2024/01/16 10:33:39;;;;;;;16.60;10.27;;;1.30;99.90;;;;;;5073848;28;20812;-78
2024/01/16 10:36:13;;;;;;;18.20;10.83;;;1.40;99.90;;;;;;5074264;28;20893;-70
2024/01/16 10:38:43;;;;;;;20.70;10.70;;;1.50;99.90;;;;;;5074937;28;20512;-73
2024/01/16 10:41:09;;;;;;;16.73;9.07;;;1.60;99.90;;;;;;5075113;28;20458;-71
2024/01/16 10:43:35;;;;;;;14.67;7.93;;;1.70;99.90;;;;;;5073752;28;20905;-70
2024/01/16 10:46:27;;;;;;;13.50;8.60;;;1.80;99.90;;;;;;5073139;28;20240;-70
2024/01/16 10:49:03;;;;;;;9.40;7.50;;;1.80;99.90;;;;;;5104717;28;20223;-79
2024/01/16 10:51:30;;;;;;;10.80;7.00;;;1.90;99.90;;;;;;5074784;28;20415;-73
2024/01/16 10:54:03;;;;;;;9.30;7.83;;;1.90;99.90;;;;;;5074753;28;20468;-80
2024/01/16 10:56:29;;;;;;;11.47;7.90;;;2.10;99.90;;;;;;5073871;28;20397;-71
2024/01/16 10:59:12;;;;;;;8.10;6.70;;;2.10;99.90;;;;;;5073459;28;20432;-75
2024/01/16 11:01:39;;;;;;;9.03;6.40;;;2.20;99.90;;;;;;5072861;28;20462;-76
2024/01/16 11:04:07;;;;;;;6.13;5.60;;;2.10;99.90;;;;;;5073704;28;21294;-80
2024/01/16 11:06:33;;;;;;;7.07;6.30;;;2.00;99.90;;;;;;5073668;28;20473;-79
2024/01/16 11:09:00;;;;;;;17.03;6.97;;;2.00;99.90;;;;;;5073192;28;20432;-77
2024/01/16 11:11:28;;;;;;;8.73;7.17;;;2.00;99.90;;;;;;5074551;28;20409;-70
2024/01/16 11:13:55;;;;;;;8.07;6.67;;;2.10;99.90;;;;;;5074352;28;20405;-70
2024/01/16 11:16:22;;;;;;;7.47;6.27;;;2.10;99.90;;;;;;5073421;28;20536;-77
2024/01/16 11:18:50;;;;;;;6.17;5.57;;;2.20;99.90;;;;;;5074227;28;20460;-80
2024/01/16 11:21:16;;;;;;;9.80;7.43;;;2.10;99.90;;;;;;5073388;28;20397;-79
2024/01/16 11:23:43;;;;;;;6.43;5.93;;;2.10;99.90;;;;;;5073982;28;20206;-69
2024/01/16 11:26:36;;;;;;;8.43;6.47;;;2.00;99.90;;;;;;5073284;28;20398;-69
2024/01/16 11:29:27;;;;;;;7.73;5.90;;;2.00;99.90;;;;;;5074022;28;20427;-70
2024/01/16 11:31:54;;;;;;;10.13;6.40;;;2.00;99.90;;;;;;5072706;28;20499;-69
2024/01/16 11:34:41;;;;;;;14.93;6.33;;;1.90;99.90;;;;;;5073950;28;20460;-77
2024/01/16 11:37:12;;;;;;;8.90;5.30;;;2.10;99.90;;;;;;5073961;28;20397;-72
2024/01/16 11:39:38;;;;;;;6.43;5.70;;;2.00;99.90;;;;;;5073432;28;20419;-76
2024/01/16 11:42:04;;;;;;;7.03;5.20;;;1.90;99.90;;;;;;5073339;28;20397;-80
2024/01/16 11:44:53;;;;;;;6.70;5.60;;;1.80;99.90;;;;;;5073548;28;20754;-75
2024/01/16 11:47:23;;;;;;;5.73;5.23;;;1.70;99.90;;;;;;5073762;28;20454;-71
2024/01/16 11:49:51;;;;;;;5.10;4.63;;;1.80;99.90;;;;;;5073701;28;20408;-71
2024/01/16 11:52:44;;;;;;;9.47;5.20;;;1.80;99.90;;;;;;5072304;28;20495;-72
2024/01/16 11:55:34;;;;;;;5.03;4.53;;;1.80;99.90;;;;;;5072685;28;20459;-79
2024/01/16 11:58:05;;;;;;;7.33;5.20;;;1.80;99.90;;;;;;5073466;28;20827;-71
2024/01/16 12:00:32;;;;;;;11.50;4.50;;;1.80;99.90;;;;;;5072556;28;20417;-70
2024/01/16 12:03:03;;;;;;;7.53;4.30;;;1.70;99.90;;;;;;5073597;28;20411;-79
2024/01/16 12:05:28;;;;;;;6.83;5.00;;;1.80;99.90;;;;;;5072561;28;20415;-70
2024/01/16 12:07:54;;;;;;;4.33;3.93;;;2.00;99.90;;;;;;5073419;28;20428;-77
2024/01/16 12:10:22;;;;;;;10.13;4.60;;;1.90;99.90;;;;;;5073404;28;20166;-78
2024/01/16 12:12:49;;;;;;;4.17;3.90;;;2.10;99.90;;;;;;5073384;28;20487;-79
2024/01/16 12:15:21;;;;;;;4.13;3.83;;;2.00;99.90;;;;;;5071528;28;20452;-75
2024/01/16 12:17:53;;;;;;;5.00;3.27;;;2.10;99.90;;;;;;5073313;28;20420;-71
2024/01/16 12:20:19;;;;;;;7.47;3.70;;;2.10;99.90;;;;;;5072383;28;20761;-79
2024/01/16 12:22:45;;;;;;;3.83;2.70;;;1.90;99.90;;;;;;5073320;28;20397;-78
2024/01/16 12:25:11;;;;;;;4.00;3.03;;;1.90;99.90;;;;;;5072321;28;20454;-71
2024/01/16 12:27:37;;;;;;;4.00;2.77;;;2.10;99.90;;;;;;5073224;28;20198;-80
2024/01/16 12:30:09;;;;;;;3.63;3.33;;;2.40;99.90;;;;;;5073215;28;20404;-71
2024/01/16 12:32:35;;;;;;;3.93;3.63;;;2.50;99.90;;;;;;5073045;28;20598;-70
2024/01/16 12:35:01;;;;;;;5.97;5.53;;;2.60;99.90;;;;;;5072264;28;20449;-80
2024/01/16 12:37:27;;;;;;;3.00;2.60;;;2.60;99.90;;;;;;5073086;28;20166;-71
2024/01/16 12:39:53;;;;;;;3.70;3.37;;;2.60;99.90;;;;;;5072116;28;20172;-76